Time;durP1;ratioP1;P1;durP2;ratioP2;P2;SDS_P1;SDS_P2;PMS_P1;PMS_P2;Temp;Humidity;BMP_temperature;BMP_pressure;BME280_temperature;BME280_humidity;BME280_pressure;Samples;Min_cycle;Max_cycle;Signal;HPM_P1;HPM_P2
2022/06/26 00:01:42;;;;;;;7.45;1.65;;;;;;;;;;4975827;28;20047;-62
2022/06/26 00:04:08;;;;;;;9.80;1.50;;;;;;;;;;4986275;28;20475;-62
2022/06/26 00:06:34;;;;;;;4.30;0.80;;;;;;;;;;4975401;28;20027;-62
2022/06/26 00:09:00;;;;;;;6.78;1.48;;;;;;;;;;4975656;28;20041;-62
2022/06/26 00:11:26;;;;;;;10.45;1.38;;;;;;;;;;4975561;28;20053;-62
2022/06/26 00:13:52;;;;;;;5.55;1.52;;;;;;;;;;4975709;28;20031;-62
2022/06/26 00:16:19;;;;;;;5.80;1.35;;;;;;;;;;4983258;28;20105;-62
2022/06/26 00:18:46;;;;;;;12.52;1.70;;;;;;;;;;4993706;28;20547;-62
2022/06/26 00:21:12;;;;;;;14.00;1.98;;;;;;;;;;4994475;28;20105;-62
2022/06/26 00:23:38;;;;;;;8.63;1.65;;;;;;;;;;4994857;28;20110;-62
2022/06/26 00:26:04;;;;;;;9.13;1.80;;;;;;;;;;4994830;28;20027;-62
2022/06/26 00:28:31;;;;;;;4.93;1.30;;;;;;;;;;4994557;28;20035;-62
2022/06/26 00:30:57;;;;;;;12.82;1.88;;;;;;;;;;4993919;28;20038;-62
2022/06/26 00:33:23;;;;;;;13.85;3.28;;;;;;;;;;4994562;28;20030;-62
2022/06/26 00:35:49;;;;;;;9.15;2.50;;;;;;;;;;4994309;28;20038;-62
2022/06/26 00:38:16;;;;;;;9.43;1.50;;;;;;;;;;4994507;28;20030;-62
2022/06/26 00:40:42;;;;;;;11.07;1.95;;;;;;;;;;4994387;28;20479;-62
2022/06/26 00:43:09;;;;;;;7.25;1.50;;;;;;;;;;4994560;28;20394;-62
2022/06/26 00:45:35;;;;;;;8.23;1.60;;;;;;;;;;4994394;28;20030;-62
2022/06/26 00:48:01;;;;;;;9.90;2.35;;;;;;;;;;4993120;28;20030;-62
2022/06/26 00:50:28;;;;;;;6.35;1.15;;;;;;;;;;4979279;28;20509;-62
2022/06/26 00:52:54;;;;;;;7.32;1.50;;;;;;;;;;4975014;28;20031;-62
2022/06/26 00:55:21;;;;;;;7.85;1.50;;;;;;;;;;4973392;28;20058;-62
2022/06/26 00:57:47;;;;;;;7.38;1.73;;;;;;;;;;4974627;28;20078;-62
2022/06/26 01:00:15;;;;;;;13.38;2.00;;;;;;;;;;4974670;28;20419;-62
2022/06/26 01:02:41;;;;;;;10.43;1.70;;;;;;;;;;4974707;28;20031;-62
2022/06/26 01:05:08;;;;;;;8.20;1.35;;;;;;;;;;4973176;28;20030;-62
2022/06/26 01:07:34;;;;;;;20.73;1.88;;;;;;;;;;4974117;28;20418;-62
2022/06/26 01:10:02;;;;;;;9.75;2.70;;;;;;;;;;4973037;28;20030;-62
2022/06/26 01:12:28;;;;;;;6.38;1.50;;;;;;;;;;4981834;28;20502;-62
2022/06/26 01:14:56;;;;;;;12.13;1.70;;;;;;;;;;4979510;28;20447;-62
2022/06/26 01:17:22;;;;;;;13.68;1.98;;;;;;;;;;4986329;28;20045;-62
2022/06/26 01:19:49;;;;;;;5.70;1.88;;;;;;;;;;4976584;28;20122;-62
2022/06/26 01:22:15;;;;;;;6.70;1.60;;;;;;;;;;4985141;28;20023;-62
2022/06/26 01:24:41;;;;;;;10.90;2.53;;;;;;;;;;4984421;28;20061;-62
2022/06/26 01:27:09;;;;;;;10.07;2.00;;;;;;;;;;4977924;28;20097;-62
2022/06/26 01:29:35;;;;;;;11.10;2.15;;;;;;;;;;4988225;28;20196;-62
2022/06/26 01:32:01;;;;;;;15.48;2.40;;;;;;;;;;4978745;28;20026;-62
2022/06/26 01:34:29;;;;;;;8.95;2.17;;;;;;;;;;4982219;28;20557;-62
2022/06/26 01:37:01;;;;;;;6.85;2.00;;;;;;;;;;4985632;28;20030;-62
2022/06/26 01:39:27;;;;;;;7.65;1.70;;;;;;;;;;4977017;28;20034;-62
2022/06/26 01:41:53;;;;;;;6.93;2.13;;;;;;;;;;4988057;28;20023;-62
2022/06/26 01:44:20;;;;;;;10.20;1.80;;;;;;;;;;4980271;28;20112;-62
2022/06/26 01:46:46;;;;;;;9.73;2.17;;;;;;;;;;4980349;28;20023;-62
2022/06/26 01:49:13;;;;;;;11.20;1.70;;;;;;;;;;4986742;28;20026;-62
2022/06/26 01:51:39;;;;;;;10.35;1.85;;;;;;;;;;4975277;28;20502;-62
2022/06/26 01:54:06;;;;;;;8.43;1.67;;;;;;;;;;4985572;28;20074;-62
2022/06/26 01:56:33;;;;;;;10.65;2.17;;;;;;;;;;4981006;28;20096;-62
2022/06/26 01:58:59;;;;;;;8.77;2.00;;;;;;;;;;4979263;28;20416;-62
2022/06/26 02:01:32;;;;;;;21.05;2.50;;;;;;;;;;4972435;28;20026;-62
2022/06/26 02:03:59;;;;;;;10.93;1.92;;;;;;;;;;4976447;28;20377;-62
2022/06/26 02:06:25;;;;;;;9.18;2.47;;;;;;;;;;4985076;28;20134;-62
2022/06/26 02:08:53;;;;;;;11.50;3.03;;;;;;;;;;4983563;28;20037;-62
2022/06/26 02:14:05;;;;;;;6.68;1.92;;;;;;;;;;4976373;28;20117;-62
2022/06/26 02:16:42;;;;;;;8.45;2.20;;;;;;;;;;4982099;28;20033;-62
2022/06/26 02:19:10;;;;;;;13.82;2.47;;;;;;;;;;4978022;28;20030;-62
2022/06/26 02:21:39;;;;;;;12.05;1.40;;;;;;;;;;4991186;28;20107;-62
2022/06/26 02:24:05;;;;;;;7.72;1.77;;;;;;;;;;4984493;28;20080;-62
2022/06/26 02:26:31;;;;;;;11.70;2.13;;;;;;;;;;4989736;28;20113;-62
2022/06/26 02:28:58;;;;;;;8.25;1.90;;;;;;;;;;4991214;28;20026;-62
2022/06/26 02:31:27;;;;;;;11.00;2.17;;;;;;;;;;4981879;28;20055;-62
2022/06/26 02:33:54;;;;;;;11.85;2.10;;;;;;;;;;4994243;28;20509;-62
2022/06/26 02:36:20;;;;;;;9.13;1.70;;;;;;;;;;4986122;28;20076;-62
2022/06/26 02:38:46;;;;;;;11.82;1.85;;;;;;;;;;4987790;28;20034;-62
2022/06/26 02:41:14;;;;;;;7.60;1.45;;;;;;;;;;4991899;28;20030;-62
2022/06/26 02:43:41;;;;;;;7.43;1.80;;;;;;;;;;4980660;28;20023;-62
2022/06/26 02:46:09;;;;;;;10.20;1.90;;;;;;;;;;4992839;28;20034;-62
2022/06/26 02:48:36;;;;;;;12.52;2.10;;;;;;;;;;4986540;28;20034;-62
2022/06/26 02:51:04;;;;;;;10.18;1.95;;;;;;;;;;4985428;28;20391;-62
2022/06/26 02:53:32;;;;;;;5.05;1.95;;;;;;;;;;4993916;28;20490;-62
2022/06/26 02:55:58;;;;;;;10.40;1.70;;;;;;;;;;4981420;28;20081;-62
2022/06/26 02:58:25;;;;;;;7.25;2.33;;;;;;;;;;4990851;28;20030;-62
2022/06/26 03:00:56;;;;;;;11.73;2.22;;;;;;;;;;4987804;28;20097;-62
2022/06/26 03:03:23;;;;;;;8.50;1.92;;;;;;;;;;4984429;28;20033;-62
2022/06/26 03:05:49;;;;;;;9.52;3.08;;;;;;;;;;4993757;28;20030;-62
2022/06/26 03:08:15;;;;;;;10.07;1.60;;;;;;;;;;4984848;28;20058;-62
2022/06/26 03:10:41;;;;;;;10.30;1.83;;;;;;;;;;4980984;28;20058;-62
2022/06/26 03:13:09;;;;;;;7.72;1.98;;;;;;;;;;4994421;28;20175;-62
2022/06/26 03:15:35;;;;;;;10.82;2.35;;;;;;;;;;4985266;28;20026;-62
2022/06/26 03:18:02;;;;;;;9.85;1.60;;;;;;;;;;4998150;28;20049;-62
2022/06/26 03:20:29;;;;;;;9.23;1.80;;;;;;;;;;4982473;28;20041;-62
2022/06/26 03:22:55;;;;;;;8.30;1.80;;;;;;;;;;4992975;28;20117;-62
2022/06/26 03:25:22;;;;;;;7.32;2.75;;;;;;;;;;4983798;28;20026;-62
2022/06/26 03:27:50;;;;;;;5.15;1.40;;;;;;;;;;4987641;28;20034;-62
2022/06/26 03:30:18;;;;;;;4.70;1.67;;;;;;;;;;4990895;28;20099;-62
2022/06/26 03:32:48;;;;;;;9.10;1.73;;;;;;;;;;4978372;28;20034;-62
2022/06/26 03:35:15;;;;;;;12.43;2.03;;;;;;;;;;4990761;28;20026;-62
2022/06/26 03:37:41;;;;;;;8.90;1.90;;;;;;;;;;4982819;28;20034;-62
2022/06/26 03:40:08;;;;;;;8.38;2.05;;;;;;;;;;4982396;28;20039;-62
2022/06/26 03:42:34;;;;;;;8.57;1.80;;;;;;;;;;4989596;28;20380;-62
2022/06/26 03:45:01;;;;;;;7.50;2.10;;;;;;;;;;4977613;28;20030;-62
2022/06/26 03:47:27;;;;;;;9.48;1.50;;;;;;;;;;4988022;28;20022;-62
2022/06/26 03:49:54;;;;;;;9.85;1.70;;;;;;;;;;4985329;28;20034;-62
2022/06/26 03:52:23;;;;;;;5.55;1.90;;;;;;;;;;4980421;28;20121;-62
2022/06/26 03:54:50;;;;;;;6.18;1.63;;;;;;;;;;4990223;28;20402;-62
2022/06/26 03:57:19;;;;;;;9.63;1.90;;;;;;;;;;4978840;28;20046;-62
2022/06/26 03:59:47;;;;;;;9.55;1.77;;;;;;;;;;4999042;28;20036;-62
2022/06/26 04:02:21;;;;;;;10.15;2.05;;;;;;;;;;4976460;28;20033;-62
2022/06/26 04:04:48;;;;;;;9.90;1.75;;;;;;;;;;4984184;28;20041;-62
2022/06/26 04:07:14;;;;;;;10.15;1.88;;;;;;;;;;4978182;28;20054;-62
2022/06/26 04:09:44;;;;;;;6.75;1.60;;;;;;;;;;4985813;28;20392;-62
2022/06/26 04:12:14;;;;;;;6.15;1.40;;;;;;;;;;4985225;28;20026;-62
2022/06/26 04:14:42;;;;;;;8.38;1.83;;;;;;;;;;4979281;28;20034;-62
2022/06/26 04:17:08;;;;;;;5.47;1.40;;;;;;;;;;4982669;28;20045;-62
2022/06/26 04:19:39;;;;;;;8.45;1.83;;;;;;;;;;4983070;28;20121;-62
2022/06/26 04:22:06;;;;;;;8.13;1.75;;;;;;;;;;4984023;28;20491;-62
2022/06/26 04:24:32;;;;;;;10.07;1.95;;;;;;;;;;4979385;28;20019;-62
2022/06/26 04:27:00;;;;;;;4.78;1.63;;;;;;;;;;4989271;28;20061;-62
2022/06/26 04:29:27;;;;;;;5.68;1.80;;;;;;;;;;4978704;28;20046;-62
2022/06/26 04:31:53;;;;;;;12.15;1.60;;;;;;;;;;4987005;28;20113;-62
2022/06/26 04:34:22;;;;;;;5.00;1.60;;;;;;;;;;4981046;28;20084;-62
2022/06/26 04:36:51;;;;;;;7.32;1.50;;;;;;;;;;4989468;28;20371;-62
2022/06/26 04:39:19;;;;;;;12.63;1.92;;;;;;;;;;4974617;28;20050;-62
2022/06/26 04:41:49;;;;;;;8.38;2.20;;;;;;;;;;4978027;28;20045;-62
2022/06/26 04:44:15;;;;;;;6.35;1.67;;;;;;;;;;4987981;28;20041;-62
2022/06/26 04:46:42;;;;;;;7.15;1.50;;;;;;;;;;4992183;28;20026;-62
2022/06/26 04:49:08;;;;;;;8.43;1.80;;;;;;;;;;4990987;28;20545;-62
2022/06/26 04:51:36;;;;;;;5.95;1.52;;;;;;;;;;4991915;28;20029;-62
2022/06/26 04:54:05;;;;;;;9.80;1.55;;;;;;;;;;4986429;28;20090;-62
2022/06/26 04:56:36;;;;;;;3.83;1.48;;;;;;;;;;4989708;28;20173;-62
2022/06/26 04:59:03;;;;;;;4.50;1.42;;;;;;;;;;4986063;28;20023;-62
2022/06/26 05:01:30;;;;;;;6.85;1.80;;;;;;;;;;4982138;28;20055;-62
2022/06/26 05:04:16;;;;;;;6.43;1.90;;;;;;;;;;4977969;28;20031;-62
2022/06/26 05:07:03;;;;;;;11.07;1.95;;;;;;;;;;4963408;28;20537;-62
2022/06/26 05:09:34;;;;;;;6.68;1.73;;;;;;;;;;4955380;28;20444;-62
2022/06/26 05:12:00;;;;;;;8.02;2.05;;;;;;;;;;4967408;28;20043;-62
2022/06/26 05:14:32;;;;;;;10.88;1.95;;;;;;;;;;4964727;28;20026;-62
2022/06/26 05:17:15;;;;;;;6.93;1.65;;;;;;;;;;4950317;28;20041;-62
2022/06/26 05:19:41;;;;;;;9.80;1.92;;;;;;;;;;4970459;28;20073;-62
2022/06/26 05:22:09;;;;;;;12.18;1.88;;;;;;;;;;4949655;28;20055;-62
2022/06/26 05:24:39;;;;;;;19.70;3.13;;;;;;;;;;4971434;28;20079;-62
2022/06/26 05:27:05;;;;;;;5.85;2.78;;;;;;;;;;4972600;28;20030;-62
2022/06/26 05:29:32;;;;;;;14.50;2.33;;;;;;;;;;4975650;28;20043;-62
2022/06/26 05:31:59;;;;;;;17.02;3.03;;;;;;;;;;4949336;28;20046;-62
2022/06/26 05:34:25;;;;;;;9.30;1.90;;;;;;;;;;4940086;28;20035;-62
2022/06/26 05:36:51;;;;;;;11.60;1.83;;;;;;;;;;4947758;28;20046;-62
2022/06/26 05:39:18;;;;;;;12.30;1.98;;;;;;;;;;4946607;28;20039;-62
2022/06/26 05:41:45;;;;;;;6.40;2.15;;;;;;;;;;4958261;28;20019;-62
2022/06/26 05:44:11;;;;;;;10.10;1.75;;;;;;;;;;4959051;28;20085;-62
2022/06/26 05:46:44;;;;;;;14.40;2.22;;;;;;;;;;4981572;28;20038;-62
2022/06/26 05:49:29;;;;;;;14.73;1.92;;;;;;;;;;4982368;28;20037;-62
2022/06/26 05:52:14;;;;;;;11.90;2.25;;;;;;;;;;4985229;28;20116;-62
2022/06/26 05:54:52;;;;;;;9.55;2.33;;;;;;;;;;4974621;28;20061;-62
2022/06/26 05:57:35;;;;;;;16.67;2.10;;;;;;;;;;4979419;28;20550;-62
2022/06/26 06:00:26;;;;;;;13.25;1.95;;;;;;;;;;4983348;28;20026;-62
2022/06/26 06:02:55;;;;;;;9.05;1.77;;;;;;;;;;4979997;28;20038;-62
2022/06/26 06:05:21;;;;;;;7.38;1.65;;;;;;;;;;4989175;28;20026;-62
2022/06/26 06:07:48;;;;;;;9.63;1.90;;;;;;;;;;4982738;28;20038;-62
2022/06/26 06:10:14;;;;;;;9.00;1.77;;;;;;;;;;4976198;28;20030;-62
2022/06/26 06:12:43;;;;;;;10.10;1.63;;;;;;;;;;4979721;28;20050;-62
2022/06/26 06:15:11;;;;;;;7.18;2.40;;;;;;;;;;4977114;28;20023;-62
2022/06/26 06:17:42;;;;;;;12.90;1.98;;;;;;;;;;4974658;28;20034;-62
2022/06/26 06:20:13;;;;;;;9.15;1.73;;;;;;;;;;4985831;28;20033;-62
2022/06/26 06:22:40;;;;;;;10.88;2.20;;;;;;;;;;4970266;28;20073;-62
2022/06/26 06:25:06;;;;;;;11.98;2.08;;;;;;;;;;4973241;28;20034;-63
2022/06/26 06:27:33;;;;;;;5.50;1.80;;;;;;;;;;4993590;28;20069;-62
2022/06/26 06:30:05;;;;;;;10.37;1.57;;;;;;;;;;4971250;28;20109;-62
2022/06/26 06:32:32;;;;;;;7.70;2.15;;;;;;;;;;4972400;28;20290;-62
2022/06/26 06:35:00;;;;;;;19.85;2.40;;;;;;;;;;4973799;28;20035;-62
2022/06/26 06:37:26;;;;;;;14.07;2.30;;;;;;;;;;4972676;28;20081;-62
2022/06/26 06:39:52;;;;;;;11.23;1.90;;;;;;;;;;4977275;28;20026;-62
2022/06/26 06:42:19;;;;;;;6.35;1.38;;;;;;;;;;4970027;28;20034;-62
2022/06/26 06:44:46;;;;;;;16.20;2.55;;;;;;;;;;4980255;28;20034;-62
2022/06/26 06:47:32;;;;;;;17.42;2.65;;;;;;;;;;4974192;28;20082;-63
2022/06/26 06:50:17;;;;;;;4.68;1.70;;;;;;;;;;4987600;28;20073;-63
2022/06/26 06:52:43;;;;;;;6.07;1.70;;;;;;;;;;4979543;28;20105;-63
2022/06/26 06:55:10;;;;;;;11.60;2.53;;;;;;;;;;4976825;28;20066;-63
2022/06/26 06:57:36;;;;;;;10.90;2.25;;;;;;;;;;4970694;28;20027;-63
2022/06/26 07:00:03;;;;;;;8.15;2.33;;;;;;;;;;4972528;28;20077;-63
2022/06/26 07:02:31;;;;;;;16.70;1.90;;;;;;;;;;4979575;28;20485;-63
2022/06/26 07:05:00;;;;;;;11.40;2.50;;;;;;;;;;4990055;28;20117;-63
2022/06/26 07:07:28;;;;;;;13.73;2.15;;;;;;;;;;4991211;28;20026;-63
2022/06/26 07:09:54;;;;;;;8.88;1.52;;;;;;;;;;4993826;28;20026;-63
2022/06/26 07:12:20;;;;;;;13.13;2.10;;;;;;;;;;4990678;28;20030;-63
2022/06/26 07:14:46;;;;;;;8.95;2.30;;;;;;;;;;4979829;28;20428;-63
2022/06/26 07:17:13;;;;;;;6.50;1.30;;;;;;;;;;4982929;28;20406;-63
2022/06/26 07:19:39;;;;;;;11.13;1.77;;;;;;;;;;4990652;28;20028;-63
2022/06/26 07:22:05;;;;;;;10.43;1.80;;;;;;;;;;4985152;28;20495;-62
2022/06/26 07:24:32;;;;;;;12.40;1.80;;;;;;;;;;4985818;28;20023;-63
2022/06/26 07:27:27;;;;;;;13.15;1.75;;;;;;;;;;4961493;28;20062;-62
2022/06/26 07:29:54;;;;;;;8.25;1.60;;;;;;;;;;4961703;28;20048;-63
2022/06/26 07:32:20;;;;;;;10.27;1.88;;;;;;;;;;4950933;28;20034;-62
2022/06/26 07:34:46;;;;;;;6.38;1.65;;;;;;;;;;4969848;28;20133;-62
2022/06/26 07:37:13;;;;;;;7.90;1.65;;;;;;;;;;4944954;28;20039;-62
2022/06/26 07:39:39;;;;;;;15.95;2.63;;;;;;;;;;4962222;28;20018;-62
2022/06/26 07:42:06;;;;;;;7.97;1.27;;;;;;;;;;4946711;29;20513;-62
2022/06/26 07:44:34;;;;;;;12.55;1.70;;;;;;;;;;4952662;28;20045;-62
2022/06/26 07:47:00;;;;;;;12.23;1.60;;;;;;;;;;4957243;28;20031;-62
2022/06/26 07:49:41;;;;;;;6.40;2.10;;;;;;;;;;4972691;28;20019;-62
2022/06/26 07:52:07;;;;;;;6.63;1.75;;;;;;;;;;4973226;28;20045;-62
2022/06/26 07:54:34;;;;;;;7.78;1.60;;;;;;;;;;4971716;28;20030;-62
2022/06/26 07:57:00;;;;;;;6.10;1.30;;;;;;;;;;4968043;28;20042;-62
2022/06/26 07:59:26;;;;;;;11.10;1.60;;;;;;;;;;4973428;28;20246;-62
2022/06/26 08:01:52;;;;;;;13.82;1.50;;;;;;;;;;4964118;28;20458;-62
2022/06/26 08:04:18;;;;;;;10.18;1.60;;;;;;;;;;4987101;28;20051;-62
2022/06/26 08:06:44;;;;;;;8.95;1.92;;;;;;;;;;4979581;28;20034;-62
2022/06/26 08:09:10;;;;;;;7.70;1.17;;;;;;;;;;4994823;28;20034;-62
2022/06/26 08:11:37;;;;;;;6.30;1.92;;;;;;;;;;4993277;28;20038;-62
2022/06/26 08:14:03;;;;;;;12.50;1.92;;;;;;;;;;4982328;28;20023;-62
2022/06/26 08:16:29;;;;;;;7.45;1.35;;;;;;;;;;4994248;28;20402;-62
2022/06/26 08:18:56;;;;;;;8.13;2.08;;;;;;;;;;4993277;28;20442;-62
2022/06/26 08:24:07;;;;;;;10.40;1.83;;;;;;;;;;4988843;28;20030;-62
2022/06/26 08:26:33;;;;;;;8.80;1.50;;;;;;;;;;4983939;28;20031;-62
2022/06/26 08:28:59;;;;;;;6.57;1.30;;;;;;;;;;4983640;28;20471;-62
2022/06/26 08:31:25;;;;;;;6.13;1.88;;;;;;;;;;4994219;28;20054;-62
2022/06/26 08:33:51;;;;;;;6.95;1.85;;;;;;;;;;4977674;28;20087;-62
2022/06/26 08:36:17;;;;;;;6.93;1.40;;;;;;;;;;4977084;28;20031;-62
2022/06/26 08:38:44;;;;;;;9.50;1.55;;;;;;;;;;4985915;28;20026;-62
2022/06/26 08:41:12;;;;;;;3.75;1.38;;;;;;;;;;4983244;28;20018;-62
2022/06/26 08:43:39;;;;;;;6.47;1.70;;;;;;;;;;4983269;28;20112;-62
2022/06/26 08:46:06;;;;;;;8.48;1.83;;;;;;;;;;4979403;28;20437;-62
2022/06/26 08:48:39;;;;;;;14.30;1.98;;;;;;;;;;4980505;28;20079;-62
2022/06/26 08:51:05;;;;;;;6.78;1.27;;;;;;;;;;4977574;28;20478;-62
2022/06/26 08:53:31;;;;;;;11.45;1.88;;;;;;;;;;4979704;28;20023;-62
2022/06/26 08:55:58;;;;;;;4.57;1.23;;;;;;;;;;4978393;28;20054;-62
2022/06/26 08:58:24;;;;;;;12.68;1.80;;;;;;;;;;4974515;28;20062;-62
2022/06/26 09:00:50;;;;;;;6.22;1.42;;;;;;;;;;4975024;28;20027;-62
2022/06/26 09:03:16;;;;;;;6.38;1.67;;;;;;;;;;4978325;28;20019;-62
2022/06/26 09:05:43;;;;;;;8.80;1.90;;;;;;;;;;4984267;28;20041;-63
2022/06/26 09:08:16;;;;;;;10.65;1.27;;;;;;;;;;4975123;28;20546;-62
2022/06/26 09:10:44;;;;;;;7.65;1.80;;;;;;;;;;4987289;28;20462;-62
2022/06/26 09:13:10;;;;;;;8.52;1.75;;;;;;;;;;4984088;28;20023;-62
2022/06/26 09:15:39;;;;;;;7.45;1.40;;;;;;;;;;4982666;28;20035;-62
2022/06/26 09:18:05;;;;;;;4.22;1.40;;;;;;;;;;4981329;28;20027;-62
2022/06/26 09:20:33;;;;;;;5.68;1.58;;;;;;;;;;4982422;28;20049;-62
2022/06/26 09:23:00;;;;;;;3.70;1.20;;;;;;;;;;4977221;28;20557;-62
2022/06/26 09:25:35;;;;;;;9.02;1.48;;;;;;;;;;4986860;28;21003;-62
2022/06/26 09:28:08;;;;;;;10.02;1.83;;;;;;;;;;4978936;28;20194;-62
2022/06/26 09:31:06;;;;;;;8.65;1.83;;;;;;;;;;4979417;28;20165;-62
2022/06/26 09:33:34;;;;;;;9.07;1.90;;;;;;;;;;4970304;28;20059;-62
2022/06/26 09:36:00;;;;;;;8.07;1.50;;;;;;;;;;4979399;28;20034;-62
2022/06/26 09:38:28;;;;;;;6.95;1.30;;;;;;;;;;4984724;28;20018;-62
2022/06/26 09:41:05;;;;;;;7.40;1.10;;;;;;;;;;4977294;28;20019;-62
2022/06/26 09:43:37;;;;;;;7.82;1.95;;;;;;;;;;4974942;28;20081;-62
2022/06/26 09:46:07;;;;;;;9.05;1.98;;;;;;;;;;4982238;28;20121;-62
2022/06/26 09:48:34;;;;;;;5.57;1.08;;;;;;;;;;4972467;28;20161;-63
2022/06/26 09:51:00;;;;;;;6.97;2.13;;;;;;;;;;4981200;28;20041;-63
2022/06/26 09:53:27;;;;;;;8.88;1.67;;;;;;;;;;4976340;28;20109;-63
2022/06/26 09:55:54;;;;;;;9.20;1.38;;;;;;;;;;4979615;28;20077;-63
2022/06/26 09:58:21;;;;;;;7.25;1.55;;;;;;;;;;4977498;28;20022;-63
2022/06/26 10:06:37;;;;;;;5.85;1.27;;;;;;;;;;4940386;29;20162;-63
2022/06/26 10:09:07;;;;;;;6.13;1.15;;;;;;;;;;4938195;29;20059;-63
2022/06/26 10:11:36;;;;;;;3.78;1.10;;;;;;;;;;4937322;29;20070;-63
2022/06/26 10:14:08;;;;;;;4.93;1.00;;;;;;;;;;4939589;29;20031;-63
2022/06/26 10:16:37;;;;;;;5.10;1.58;;;;;;;;;;4939015;29;20042;-63
2022/06/26 10:19:24;;;;;;;7.45;1.40;;;;;;;;;;4938315;29;20696;-63
2022/06/26 10:21:51;;;;;;;8.98;1.45;;;;;;;;;;4939146;29;20040;-63
2022/06/26 10:24:17;;;;;;;6.57;1.05;;;;;;;;;;4941148;29;20019;-63
2022/06/26 10:26:53;;;;;;;4.82;1.10;;;;;;;;;;4940522;29;20042;-63
2022/06/26 10:29:19;;;;;;;5.50;1.10;;;;;;;;;;4934863;29;20062;-63
2022/06/26 10:31:50;;;;;;;7.20;1.50;;;;;;;;;;4941768;29;20054;-63
2022/06/26 10:34:20;;;;;;;6.05;2.10;;;;;;;;;;4953748;28;20065;-63
2022/06/26 10:37:05;;;;;;;9.93;2.80;;;;;;;;;;4988026;28;20030;-63
2022/06/26 10:39:45;;;;;;;7.43;1.65;;;;;;;;;;4978816;28;20030;-63
2022/06/26 10:45:15;;;;;;;8.60;2.85;;;;;;;;;;4985163;28;20477;-63
2022/06/26 10:47:41;;;;;;;7.88;1.40;;;;;;;;;;4981360;28;20034;-63
2022/06/26 10:50:07;;;;;;;8.52;1.20;;;;;;;;;;4986613;28;20105;-63
2022/06/26 10:52:33;;;;;;;6.80;1.15;;;;;;;;;;4983758;28;20042;-63
2022/06/26 10:55:02;;;;;;;5.65;1.40;;;;;;;;;;4986209;28;20042;-63
2022/06/26 10:57:35;;;;;;;8.50;1.67;;;;;;;;;;4980738;28;20066;-63
2022/06/26 11:00:03;;;;;;;8.75;1.42;;;;;;;;;;4986993;28;20030;-63
2022/06/26 11:02:36;;;;;;;9.02;1.02;;;;;;;;;;4981678;28;20023;-63
2022/06/26 11:05:03;;;;;;;6.85;1.60;;;;;;;;;;4983220;28;20481;-63
2022/06/26 11:07:39;;;;;;;6.88;1.45;;;;;;;;;;4982446;28;20074;-63
2022/06/26 11:10:08;;;;;;;6.82;1.50;;;;;;;;;;4980306;28;20030;-63
2022/06/26 11:12:41;;;;;;;9.20;2.30;;;;;;;;;;4977050;28;20061;-63
2022/06/26 11:15:08;;;;;;;5.88;1.83;;;;;;;;;;4985827;28;20066;-63
2022/06/26 11:17:34;;;;;;;5.35;1.33;;;;;;;;;;4987603;28;20035;-63
2022/06/26 11:22:45;;;;;;;3.47;1.05;;;;;;;;;;4984724;28;20027;-63
2022/06/26 11:25:12;;;;;;;7.70;1.00;;;;;;;;;;4980822;28;20367;-63
2022/06/26 11:27:38;;;;;;;6.13;0.88;;;;;;;;;;4985524;28;20030;-63
2022/06/26 11:30:05;;;;;;;4.20;1.10;;;;;;;;;;4985997;28;20054;-63
2022/06/26 11:32:31;;;;;;;4.35;1.00;;;;;;;;;;4980932;28;20498;-63
2022/06/26 11:34:57;;;;;;;4.20;0.93;;;;;;;;;;4985572;28;20387;-63
2022/06/26 11:37:35;;;;;;;7.72;0.80;;;;;;;;;;4993527;28;20026;-63
2022/06/26 11:40:11;;;;;;;5.85;0.93;;;;;;;;;;4981334;28;20030;-63
2022/06/26 11:42:37;;;;;;;5.97;1.13;;;;;;;;;;4980397;28;20029;-63
2022/06/26 11:45:03;;;;;;;5.43;1.38;;;;;;;;;;4977800;28;20061;-63
2022/06/26 11:47:30;;;;;;;1.73;0.88;;;;;;;;;;4989353;28;20121;-63
2022/06/26 11:49:56;;;;;;;2.92;0.88;;;;;;;;;;4989419;28;20026;-63
2022/06/26 11:52:22;;;;;;;3.20;0.98;;;;;;;;;;4985712;28;20027;-63
2022/06/26 11:54:56;;;;;;;3.00;0.80;;;;;;;;;;4984814;28;20419;-63
2022/06/26 11:57:22;;;;;;;4.05;1.05;;;;;;;;;;4981511;28;20035;-63
2022/06/26 11:59:48;;;;;;;3.88;0.73;;;;;;;;;;4980267;28;20140;-63
2022/06/26 12:02:18;;;;;;;4.20;1.48;;;;;;;;;;4986212;28;20444;-63
2022/06/26 12:04:54;;;;;;;3.55;1.20;;;;;;;;;;4984760;28;20014;-63
2022/06/26 12:07:20;;;;;;;6.30;1.20;;;;;;;;;;4987443;28;20054;-63
2022/06/26 12:09:46;;;;;;;8.48;1.08;;;;;;;;;;4979715;28;20032;-63
2022/06/26 12:12:13;;;;;;;5.05;1.00;;;;;;;;;;4980972;28;20033;-63
2022/06/26 12:14:44;;;;;;;6.68;1.17;;;;;;;;;;4981549;28;20592;-63
2022/06/26 12:17:10;;;;;;;6.07;1.02;;;;;;;;;;4983492;28;20545;-63
2022/06/26 12:19:39;;;;;;;7.85;1.40;;;;;;;;;;4978161;28;20062;-63
2022/06/26 12:22:05;;;;;;;5.40;1.25;;;;;;;;;;4989543;28;20506;-63
2022/06/26 12:24:31;;;;;;;5.15;0.93;;;;;;;;;;4979945;28;20026;-63
2022/06/26 12:26:58;;;;;;;2.45;0.77;;;;;;;;;;4982689;28;20023;-63
2022/06/26 12:29:27;;;;;;;9.77;1.17;;;;;;;;;;4985880;28;20459;-63
2022/06/26 12:31:53;;;;;;;6.38;1.08;;;;;;;;;;4978275;28;20451;-63
2022/06/26 12:34:20;;;;;;;6.40;1.23;;;;;;;;;;4979445;28;20084;-63
2022/06/26 12:36:46;;;;;;;5.28;1.00;;;;;;;;;;4981663;28;20026;-63
2022/06/26 12:39:12;;;;;;;8.13;1.75;;;;;;;;;;4988541;28;20026;-63
2022/06/26 12:41:41;;;;;;;6.57;1.23;;;;;;;;;;4979338;28;20022;-63
2022/06/26 12:44:07;;;;;;;7.88;1.48;;;;;;;;;;4979031;28;20225;-63
2022/06/26 12:46:33;;;;;;;3.95;1.20;;;;;;;;;;4981177;28;20117;-63
2022/06/26 12:48:59;;;;;;;3.22;0.80;;;;;;;;;;4986617;28;20045;-63
2022/06/26 12:51:27;;;;;;;3.08;0.73;;;;;;;;;;4989389;28;20023;-63
2022/06/26 12:53:53;;;;;;;6.43;1.30;;;;;;;;;;4987965;28;20058;-63
2022/06/26 12:56:19;;;;;;;5.63;1.30;;;;;;;;;;4983345;28;20085;-63
2022/06/26 12:58:45;;;;;;;8.48;1.48;;;;;;;;;;4982051;28;20407;-63
2022/06/26 13:01:12;;;;;;;7.45;1.30;;;;;;;;;;4987471;28;20019;-63
2022/06/26 13:03:38;;;;;;;4.82;1.23;;;;;;;;;;4984336;28;20054;-63
2022/06/26 13:06:04;;;;;;;4.90;1.02;;;;;;;;;;4984978;28;20121;-63
2022/06/26 13:08:31;;;;;;;10.38;1.00;;;;;;;;;;4988659;28;20970;-63
2022/06/26 13:11:22;;;;;;;3.78;1.00;;;;;;;;;;4979186;28;20621;-63
2022/06/26 13:13:44;;;;;;;7.38;1.00;;;;;;;;;;4983863;28;20041;-63
2022/06/26 13:16:10;;;;;;;8.30;1.23;;;;;;;;;;4982745;28;20023;-63
2022/06/26 13:18:36;;;;;;;7.25;1.23;;;;;;;;;;4981837;28;20018;-63
2022/06/26 13:21:03;;;;;;;6.72;1.80;;;;;;;;;;4978611;28;20038;-63
2022/06/26 13:23:29;;;;;;;7.10;1.10;;;;;;;;;;4979895;28;20081;-63
2022/06/26 13:25:55;;;;;;;3.88;1.23;;;;;;;;;;4982036;28;20026;-63
2022/06/26 13:28:21;;;;;;;5.20;1.13;;;;;;;;;;4980017;28;20025;-63
2022/06/26 13:30:47;;;;;;;4.05;1.20;;;;;;;;;;4981232;28;20466;-63
2022/06/26 13:33:14;;;;;;;3.40;1.10;;;;;;;;;;4972987;28;20511;-63
2022/06/26 13:35:40;;;;;;;4.35;1.23;;;;;;;;;;4979259;28;20509;-63
2022/06/26 13:38:06;;;;;;;5.45;0.93;;;;;;;;;;4976586;28;20027;-63
2022/06/26 13:40:32;;;;;;;3.30;0.80;;;;;;;;;;4982795;28;20101;-63
2022/06/26 13:42:58;;;;;;;9.18;1.23;;;;;;;;;;4981625;28;20061;-63
2022/06/26 13:45:24;;;;;;;6.03;1.23;;;;;;;;;;4979913;28;20035;-63
2022/06/26 13:47:50;;;;;;;5.53;1.83;;;;;;;;;;4981393;28;20031;-63
2022/06/26 13:50:17;;;;;;;5.90;1.60;;;;;;;;;;4979604;28;20109;-63
2022/06/26 13:52:43;;;;;;;7.13;1.27;;;;;;;;;;4979383;28;20038;-63
2022/06/26 13:55:10;;;;;;;8.68;1.73;;;;;;;;;;4977946;28;20034;-63
2022/06/26 13:57:36;;;;;;;10.50;1.17;;;;;;;;;;4982856;28;20080;-63
2022/06/26 14:00:04;;;;;;;6.75;1.40;;;;;;;;;;4989862;28;20029;-63
2022/06/26 14:02:38;;;;;;;8.63;1.17;;;;;;;;;;4983715;28;20733;-63
2022/06/26 14:05:05;;;;;;;9.43;1.52;;;;;;;;;;4983275;28;20390;-63
2022/06/26 14:07:31;;;;;;;8.35;1.63;;;;;;;;;;4981192;28;20057;-63
2022/06/26 14:09:57;;;;;;;6.13;1.08;;;;;;;;;;4982335;28;20109;-63
2022/06/26 14:12:23;;;;;;;7.43;1.13;;;;;;;;;;4978924;28;20022;-63
2022/06/26 14:14:49;;;;;;;6.10;1.67;;;;;;;;;;4979863;28;20085;-63
2022/06/26 14:17:15;;;;;;;12.27;1.73;;;;;;;;;;4985940;28;20018;-63
2022/06/26 14:19:41;;;;;;;5.75;1.08;;;;;;;;;;4983217;28;20030;-63
2022/06/26 14:27:54;;;;;;;6.93;1.40;;;;;;;;;;4950795;29;20529;-63
2022/06/26 14:30:20;;;;;;;9.05;1.42;;;;;;;;;;4949526;29;20078;-63
2022/06/26 14:32:47;;;;;;;5.07;1.40;;;;;;;;;;4937888;29;20396;-63
2022/06/26 14:35:13;;;;;;;7.00;1.25;;;;;;;;;;4949150;29;20507;-63
2022/06/26 14:37:39;;;;;;;10.95;1.50;;;;;;;;;;4948066;28;20456;-63
2022/06/26 14:40:05;;;;;;;7.55;1.33;;;;;;;;;;4947099;29;20046;-63
2022/06/26 14:42:32;;;;;;;7.43;1.40;;;;;;;;;;4946916;29;20165;-63
2022/06/26 14:44:58;;;;;;;4.30;1.40;;;;;;;;;;4921626;29;20567;-63
2022/06/26 14:47:24;;;;;;;8.55;2.03;;;;;;;;;;4945646;29;20161;-63
2022/06/26 14:49:50;;;;;;;10.45;2.53;;;;;;;;;;4950667;29;20028;-63
2022/06/26 14:52:16;;;;;;;7.90;1.50;;;;;;;;;;4941060;29;20040;-63
2022/06/26 14:54:42;;;;;;;5.68;1.35;;;;;;;;;;4949769;29;20071;-63
2022/06/26 14:57:08;;;;;;;5.65;1.23;;;;;;;;;;4938049;29;20032;-63
2022/06/26 14:59:37;;;;;;;8.70;1.60;;;;;;;;;;4964030;28;20519;-62
2022/06/26 15:02:05;;;;;;;10.27;1.15;;;;;;;;;;4981230;28;20033;-62
2022/06/26 15:04:31;;;;;;;6.65;1.15;;;;;;;;;;4973967;28;20391;-62
2022/06/26 15:06:58;;;;;;;6.45;0.80;;;;;;;;;;4977052;28;20298;-62
2022/06/26 15:09:24;;;;;;;1.60;0.90;;;;;;;;;;4978786;28;20545;-62